Virgie, KY (41572)

3:05 PM EST on February 10, 2016 (GMT -0500)
Upper Chloe Road | | Change Station
CLOSE
Current Station
Personal Weather Station
Location: Pikeville, KY
Elevation: 758 ft
Nearby Weather Stations
Active Advisory: Winter Weather Advisory

Elev 758 ft 37.45 °N, 82.48 °W | Updated 11 seconds ago

Snow
Snow
23.2 °F
Feels Like 18 °F
N
4.3
Wind Variable Wind from West
Gusts 12.5 mph

Today
High -- | Low -- °F
--% Chance of Precip.
Yesterday
High -- | Low -- °F
Precip. -- in
Pressure 29.88 in
Visibility 10.0 miles
Clouds Scattered Clouds 2700 ft
Mostly Cloudy 3300 ft
Overcast 3900 ft
Windchill 18 °F
Dew Point 14 °F
Humidity 66%
Rainfall 0.00 in
Snow Depth Not available.
7:25 AM 6:04 PM
Waxing Crescent, 7% visible
METAR KLNP 101955Z AUTO 26012G18KT 10SM SCT027 BKN033 OVC039 M07/M16 A2988 RMK AO2
Pressure 29.88 in
Visibility 10.0 miles
Clouds Scattered Clouds 2700 ft
Mostly Cloudy 3300 ft
Overcast 3900 ft
Windchill 18 °F
Dew Point 14 °F
Humidity 66%
Rainfall 0.00 in
Snow Depth Not available.
7:25 AM 6:04 PM
Waxing Crescent, 7% visible
METAR KLNP 101955Z AUTO 26012G18KT 10SM SCT027 BKN033 OVC039 M07/M16 A2988 RMK AO2

10-Day Weather Forecast

Almanac

Astronomy

Feb. 10, 2016 Rise Set
Actual Time
Civil Twilight
Nautical Twilight
Astronomical Twilight
Moon
Length of Visible Light
Length of Day
Tomorrow will be .
, % of the Moon is Illuminated

Today's Extremes

State Highs State Lows

Community

WunderPhotos

Upload Photos

1,891,929 photos uploaded!

WunderBlog® & News

Nearby

Air Quality

  Air Quality AQ Index Pollutant
Not available.

Snow Depth

Station Depth Elevation

Earthquake Activity

City Distance Mag. Time & Date
Minimum magnitude displayed is 2.5.

Coastal Water Temperatures

Place Temperature

Stations

Nearby Weather Stations

Station Location Temp. Windchill Dew Point Humidity Wind Precip. Elev Updated Type
                   

Watches & Warnings

Winter Weather Advisory
Issued: 1:20 PM EST Feb. 10, 2016 – National Weather Service

... Winter Weather Advisory in effect until 6 PM EST this
evening...

The National Weather Service in Jackson has issued a Winter
Weather Advisory for snow... which is in effect until 6 PM EST
this evening.

* Scattered snow showers will continue this afternoon... gradually
diminishing towards evening. Most of the snow showers will be
light... however there will be a few embedded moderate to heavy
snow showers at times through 6 PM.

* Most locations will see between a dusting and a quarter of an
inch of snowfall... however for elevations above 2500 feet... up
to a half inch could fall.

* Roads could become snow covered quickly within any heavier
snow showers. Additionally... visibilities will be greatly
reduced within the more intense snow showers.

Precautionary/preparedness actions...

A Winter Weather Advisory for snow means that periods of snow
will cause primarily travel difficulties. Be prepared for snow
covered roads and limited visibilities... and use caution while
driving.